Time;durP1;ratioP1;P1;durP2;ratioP2;P2;SDS_P1;SDS_P2;PMS_P1;PMS_P2;Temp;Humidity;BMP_temperature;BMP_pressure;BME280_temperature;BME280_humidity;BME280_pressure;Samples;Min_cycle;Max_cycle;Signal;HPM_P1;HPM_P2
2023/05/05 00:01:16;;;;;;;12.07;10.83;;;;;;;17.14;68.24;101242.41;5327061;28;20036;-69
2023/05/05 00:03:47;;;;;;;13.85;9.43;;;;;;;17.06;68.79;101240.00;5327026;28;20032;-69
2023/05/05 00:06:19;;;;;;;13.20;9.90;;;;;;;17.03;69.40;101241.88;5327251;27;20106;-68
2023/05/05 00:08:50;;;;;;;11.83;10.33;;;;;;;16.92;70.25;101247.50;5325710;28;20036;-68
2023/05/05 00:11:22;;;;;;;15.87;10.13;;;;;;;16.95;70.13;101239.50;5308989;28;20036;-69
2023/05/05 00:13:53;;;;;;;13.90;10.33;;;;;;;16.85;71.03;101257.34;5326901;28;20028;-67
2023/05/05 00:16:24;;;;;;;13.60;9.60;;;;;;;16.84;71.88;101253.00;5325606;28;20428;-68
2023/05/05 00:18:56;;;;;;;14.43;10.87;;;;;;;16.80;71.92;101255.75;5326859;28;20472;-67
2023/05/05 00:21:27;;;;;;;14.50;10.80;;;;;;;16.73;72.97;101244.56;5325209;28;20048;-68
2023/05/05 00:23:59;;;;;;;11.67;10.27;;;;;;;16.71;73.31;101254.25;5326767;28;20036;-68
2023/05/05 00:26:30;;;;;;;11.67;10.07;;;;;;;16.67;73.72;101252.66;5326694;28;20063;-67
2023/05/05 00:29:02;;;;;;;13.93;11.30;;;;;;;16.63;74.06;101257.16;5326711;28;20374;-68
2023/05/05 00:31:33;;;;;;;13.70;11.20;;;;;;;16.57;74.78;101252.91;5326707;28;20035;-68
2023/05/05 00:34:05;;;;;;;22.90;11.73;;;;;;;16.49;75.48;101254.06;5359703;27;20032;-68
2023/05/05 00:36:36;;;;;;;13.40;12.10;;;;;;;16.46;76.06;101254.16;5326637;28;20059;-67
2023/05/05 00:39:08;;;;;;;14.47;11.60;;;;;;;16.40;76.48;101250.81;5325054;28;20084;-69
2023/05/05 00:41:40;;;;;;;14.60;11.57;;;;;;;16.32;77.39;101249.31;5326408;28;20041;-68
2023/05/05 00:44:11;;;;;;;13.07;11.77;;;;;;;16.21;77.60;101252.22;5326456;28;20032;-67
2023/05/05 00:46:43;;;;;;;14.03;12.57;;;;;;;16.22;77.81;101260.06;5326156;28;20070;-68
2023/05/05 00:49:15;;;;;;;16.83;12.32;;;;;;;16.17;78.73;101261.13;5359035;27;20115;-69
2023/05/05 00:51:46;;;;;;;13.63;11.47;;;;;;;16.14;79.06;101266.47;5326631;28;20044;-69
2023/05/05 00:54:17;;;;;;;13.90;12.50;;;;;;;16.11;79.13;101275.31;5326004;28;20028;-67
2023/05/05 00:56:50;;;;;;;14.77;12.80;;;;;;;16.09;79.39;101273.63;5325885;28;20028;-68
2023/05/05 00:59:21;;;;;;;16.58;12.88;;;;;;;16.03;79.84;101275.53;5325024;28;20466;-67
2023/05/05 01:01:53;;;;;;;14.27;12.87;;;;;;;15.94;79.89;101259.13;5325768;28;20039;-69
2023/05/05 01:04:27;;;;;;;14.27;12.87;;;;;;;15.96;80.11;101266.09;5326484;28;20280;-67
2023/05/05 01:07:05;;;;;;;15.57;13.95;;;;;;;15.81;81.11;101264.75;5326028;28;20028;-67
2023/05/05 01:09:46;;;;;;;17.55;14.30;;;;;;;15.76;81.33;101266.63;5325877;28;20059;-68
2023/05/05 01:12:33;;;;;;;15.13;13.75;;;;;;;15.71;81.56;101278.97;5325689;28;20023;-68
2023/05/05 01:15:18;;;;;;;15.93;14.25;;;;;;;15.64;82.00;101275.66;5325967;28;20027;-67
2023/05/05 01:18:26;;;;;;;15.75;14.15;;;;;;;15.60;81.90;101267.88;5325926;28;20371;-67
2023/05/05 01:21:09;;;;;;;16.35;14.10;;;;;;;15.64;81.50;101274.81;5325180;28;20477;-68
2023/05/05 01:24:12;;;;;;;16.30;14.60;;;;;;;15.68;80.61;101279.94;5325983;28;20046;-69
2023/05/05 01:27:03;;;;;;;;;;;;;;;15.79;78.44;101270.94;5325713;28;20157;-68
2023/05/05 01:30:08;;;;;;;15.82;12.63;;;;;;;15.81;78.97;101256.84;5325566;28;19912;-67
2023/05/05 01:32:49;;;;;;;14.23;12.82;;;;;;;15.93;78.92;101258.28;5325224;28;20405;-68
2023/05/05 01:35:20;;;;;;;14.13;12.73;;;;;;;15.98;78.52;101263.41;5325813;28;20147;-68
2023/05/05 01:38:00;;;;;;;14.23;12.83;;;;;;;15.87;77.82;101268.94;5325316;28;20102;-67
2023/05/05 01:40:37;;;;;;;14.23;12.82;;;;;;;15.69;78.55;101271.13;5325703;28;20035;-68
2023/05/05 01:43:11;;;;;;;14.80;12.90;;;;;;;15.69;78.40;101265.03;5325290;28;20063;-68
2023/05/05 01:45:45;;;;;;;14.82;11.93;;;;;;;15.57;79.02;101266.22;5325420;28;20031;-67
2023/05/05 01:48:19;;;;;;;14.18;12.60;;;;;;;15.68;78.77;101258.03;5325664;28;20046;-68
2023/05/05 01:50:52;;;;;;;14.18;12.70;;;;;;;15.55;79.14;101261.91;5307447;28;20462;-67
2023/05/05 01:53:26;;;;;;;13.65;12.27;;;;;;;15.37;79.14;101265.84;5325830;28;20028;-67
2023/05/05 01:55:58;;;;;;;13.88;12.10;;;;;;;15.41;79.04;101270.16;5325672;28;20038;-68
2023/05/05 01:58:31;;;;;;;14.23;12.57;;;;;;;15.43;79.08;101266.56;5325885;28;20042;-67
2023/05/05 02:01:03;;;;;;;14.20;12.75;;;;;;;15.17;79.88;101275.09;5326421;28;20058;-68
2023/05/05 02:03:37;;;;;;;15.05;12.20;;;;;;;15.22;80.05;101265.34;5324555;28;20536;-67
2023/05/05 02:06:11;;;;;;;13.98;12.57;;;;;;;15.11;80.75;101276.09;5324864;28;20139;-69
2023/05/05 02:08:43;;;;;;;14.75;13.00;;;;;;;14.97;81.68;101275.53;5324815;28;20127;-69
2023/05/05 02:11:15;;;;;;;;;;;;;;;14.97;78.61;101277.31;5325544;28;20466;-67
2023/05/05 02:13:48;;;;;;;13.63;12.23;;;;;;;14.93;81.43;101271.28;5324819;28;19961;-67
2023/05/05 02:16:22;;;;;;;15.30;13.80;;;;;;;14.70;82.86;101284.91;5325060;28;20313;-67
2023/05/05 02:18:54;;;;;;;16.05;12.75;;;;;;;14.65;83.53;101278.91;5325038;28;20075;-68
2023/05/05 02:21:27;;;;;;;15.48;13.93;;;;;;;14.56;84.22;101290.44;5324358;28;20032;-68
2023/05/05 02:23:59;;;;;;;;;;;;;;;14.56;81.22;101288.66;5325335;28;20055;-68
2023/05/05 02:26:34;;;;;;;17.00;13.82;;;;;;;14.34;85.39;101290.88;5325045;28;19974;-68
2023/05/05 02:29:11;;;;;;;16.17;14.55;;;;;;;14.29;86.30;101286.63;5324873;28;20092;-68
2023/05/05 02:31:54;;;;;;;16.33;13.82;;;;;;;14.32;86.05;101297.06;5325288;28;20036;-68
2023/05/05 02:34:26;;;;;;;15.82;13.82;;;;;;;14.24;86.66;101302.44;5323732;28;20382;-69
2023/05/05 02:37:02;;;;;;;17.83;14.82;;;;;;;14.15;87.92;101300.00;5323607;28;20039;-68
2023/05/05 02:39:39;;;;;;;16.83;15.18;;;;;;;14.07;88.89;101302.78;5325310;28;20034;-67
2023/05/05 02:42:15;;;;;;;18.20;15.82;;;;;;;14.10;89.16;101313.19;5324950;28;20028;-68
2023/05/05 02:44:48;;;;;;;17.30;14.90;;;;;;;14.07;89.44;101317.63;5326163;28;20028;-68
2023/05/05 02:47:20;;;;;;;20.73;16.50;;;;;;;13.83;90.81;101320.69;5328261;28;20027;-68
2023/05/05 02:49:51;;;;;;;17.90;16.10;;;;;;;13.77;91.12;101320.78;5326934;28;20034;-68
2023/05/05 02:52:22;;;;;;;17.90;16.03;;;;;;;13.85;90.69;101318.91;5328840;28;20031;-68
2023/05/05 02:54:54;;;;;;;17.63;15.93;;;;;;;13.80;90.51;101320.75;5327283;28;20079;-68
2023/05/05 02:57:34;;;;;;;18.33;16.50;;;;;;;13.70;90.78;101311.31;5327257;28;20024;-68
2023/05/05 03:00:35;;;;;;;16.75;15.00;;;;;;;13.64;90.96;101314.91;5328107;28;20028;-69
2023/05/05 03:03:37;;;;;;;18.50;15.55;;;;;;;13.60;90.35;101309.72;5328347;28;20077;-69
2023/05/05 03:06:11;;;;;;;17.30;15.48;;;;;;;13.61;90.16;101314.09;5328312;28;20375;-68
2023/05/05 03:08:52;;;;;;;19.98;15.13;;;;;;;13.52;90.79;101309.00;5327963;28;20034;-68
2023/05/05 03:11:33;;;;;;;16.27;13.95;;;;;;;13.52;90.74;101303.75;5328140;28;20031;-68
2023/05/05 03:14:11;;;;;;;17.40;15.02;;;;;;;13.51;90.88;101318.63;5328071;28;20023;-68
2023/05/05 03:16:45;;;;;;;18.02;14.43;;;;;;;13.42;91.20;101311.75;5327796;28;20047;-68
2023/05/05 03:19:17;;;;;;;17.33;14.55;;;;;;;13.24;91.89;101310.28;5327997;28;20364;-68
2023/05/05 03:21:49;;;;;;;23.23;15.32;;;;;;;13.14;92.42;101316.53;5327561;28;20043;-67
2023/05/05 03:24:20;;;;;;;16.20;14.37;;;;;;;13.13;92.61;101313.03;5326884;28;20114;-68
2023/05/05 03:26:52;;;;;;;14.47;13.07;;;;;;;13.17;92.36;101328.69;5327570;28;20032;-67
2023/05/05 03:29:24;;;;;;;18.53;13.33;;;;;;;13.11;93.12;101329.69;5327766;28;20039;-69
2023/05/05 03:31:55;;;;;;;15.13;13.67;;;;;;;13.08;92.90;101320.09;5328075;28;20299;-69
2023/05/05 03:34:27;;;;;;;14.47;13.17;;;;;;;13.08;93.32;101337.56;5327499;28;20031;-68
2023/05/05 03:36:58;;;;;;;17.87;15.97;;;;;;;13.09;92.83;101324.47;5327615;28;20052;-68
2023/05/05 03:39:29;;;;;;;14.73;13.23;;;;;;;13.05;93.17;101314.91;5327612;28;20039;-68
2023/05/05 03:42:01;;;;;;;15.23;13.53;;;;;;;13.12;92.89;101324.41;5326347;28;20037;-67
2023/05/05 03:44:32;;;;;;;15.30;13.70;;;;;;;13.01;93.38;101321.09;5327485;28;20486;-69
2023/05/05 03:47:04;;;;;;;15.40;13.80;;;;;;;12.99;93.54;101335.94;5326161;28;20031;-68
2023/05/05 03:49:36;;;;;;;18.73;14.97;;;;;;;12.95;93.73;101332.50;5326840;28;20035;-68
2023/05/05 03:52:08;;;;;;;15.95;14.35;;;;;;;12.89;93.86;101335.19;5326254;28;20039;-69
2023/05/05 03:54:39;;;;;;;17.87;13.90;;;;;;;12.87;94.31;101325.66;5326585;28;20440;-67
2023/05/05 03:57:10;;;;;;;17.23;15.47;;;;;;;12.85;94.60;101337.91;5327139;28;20451;-67
2023/05/05 03:59:42;;;;;;;19.43;14.07;;;;;;;12.75;94.84;101345.88;5327194;28;20119;-68
2023/05/05 04:02:13;;;;;;;18.80;15.67;;;;;;;12.63;95.42;101343.38;5327079;28;20069;-67
2023/05/05 04:04:45;;;;;;;15.20;13.60;;;;;;;12.63;95.38;101338.16;5326436;28;20042;-69
2023/05/05 04:07:16;;;;;;;16.73;14.83;;;;;;;12.59;95.15;101334.72;5327041;28;20027;-68
2023/05/05 04:09:47;;;;;;;14.67;13.20;;;;;;;12.58;95.31;101340.81;5326740;28;20023;-69
2023/05/05 04:12:19;;;;;;;14.43;13.00;;;;;;;12.53;95.65;101344.41;5325335;28;20036;-68
2023/05/05 04:14:50;;;;;;;14.20;12.33;;;;;;;12.54;95.50;101349.59;5326531;28;20055;-68
2023/05/05 04:17:22;;;;;;;12.77;11.50;;;;;;;12.59;95.56;101349.56;5325444;28;20031;-68
2023/05/05 04:19:53;;;;;;;14.67;12.47;;;;;;;12.55;95.29;101358.31;5326113;28;20118;-67
2023/05/05 04:22:24;;;;;;;13.47;11.53;;;;;;;12.59;94.84;101360.03;5324959;28;20055;-68
2023/05/05 04:24:56;;;;;;;13.40;12.03;;;;;;;12.59;95.11;101355.66;5324925;28;20032;-68
2023/05/05 04:27:28;;;;;;;13.07;11.80;;;;;;;12.56;94.96;101352.22;5326473;28;20437;-67
2023/05/05 04:30:00;;;;;;;;;;;;;;;12.55;94.12;101358.31;5326688;28;20547;-68
2023/05/05 04:32:31;;;;;;;14.45;11.85;;;;;;;12.52;94.88;101353.13;5326388;28;19915;-67
2023/05/05 04:35:03;;;;;;;15.97;12.07;;;;;;;12.46;94.81;101364.53;5324965;28;20040;-68
2023/05/05 04:37:34;;;;;;;13.17;11.50;;;;;;;12.44;95.25;101366.28;5326191;28;20067;-68
2023/05/05 04:40:06;;;;;;;14.07;12.67;;;;;;;12.45;95.47;101364.53;5324829;28;20032;-68
2023/05/05 04:42:38;;;;;;;15.93;13.07;;;;;;;12.55;95.11;101363.53;5324521;28;20028;-69
2023/05/05 04:45:10;;;;;;;13.93;11.77;;;;;;;12.56;94.74;101358.28;5325807;28;20546;-68
2023/05/05 04:47:41;;;;;;;14.10;12.45;;;;;;;12.54;94.64;101364.41;5326035;28;20072;-68
2023/05/05 04:50:13;;;;;;;13.57;12.17;;;;;;;12.51;95.05;101369.69;5325203;28;20039;-68
2023/05/05 04:52:44;;;;;;;13.90;12.50;;;;;;;12.48;94.67;101369.75;5325903;28;20027;-68
2023/05/05 04:55:15;;;;;;;13.87;12.47;;;;;;;12.52;94.83;101366.19;5325920;28;20126;-67
2023/05/05 04:57:47;;;;;;;13.10;11.77;;;;;;;12.50;94.58;101357.50;5325499;28;20023;-68
2023/05/05 05:00:18;;;;;;;16.87;12.63;;;;;;;12.53;94.75;101354.84;5325572;28;20390;-69
2023/05/05 05:02:51;;;;;;;18.93;13.67;;;;;;;12.61;94.27;101357.38;5325532;27;20467;-67
2023/05/05 05:05:22;;;;;;;;;;;;;;;12.58;92.93;101356.50;5325938;28;20058;-68
2023/05/05 05:07:53;;;;;;;14.80;13.25;;;;;;;12.56;94.02;101358.28;5325131;28;20326;-67
2023/05/05 05:10:25;;;;;;;16.30;13.83;;;;;;;12.57;94.05;101349.56;5325347;28;20055;-69
2023/05/05 05:12:56;;;;;;;13.87;12.13;;;;;;;12.61;94.27;101350.41;5324619;28;20057;-68
2023/05/05 05:15:28;;;;;;;13.40;12.07;;;;;;;12.63;94.08;101339.91;5326031;28;20110;-68
2023/05/05 05:17:59;;;;;;;15.43;12.83;;;;;;;12.60;93.83;101343.44;5326001;28;20049;-67
2023/05/05 05:20:31;;;;;;;15.10;12.30;;;;;;;12.70;94.36;101346.78;5325987;28;20039;-68
2023/05/05 05:23:03;;;;;;;14.43;13.03;;;;;;;12.67;94.19;101346.81;5325677;28;20047;-67
2023/05/05 05:25:34;;;;;;;14.38;12.88;;;;;;;12.67;94.09;101347.72;5326360;28;20394;-68
2023/05/05 05:28:05;;;;;;;14.17;12.70;;;;;;;12.71;93.75;101338.91;5325923;28;20020;-66
2023/05/05 05:30:37;;;;;;;15.10;13.60;;;;;;;12.69;93.61;101347.69;5325139;28;20055;-69
2023/05/05 05:33:08;;;;;;;14.70;13.20;;;;;;;12.88;93.22;101354.41;5307118;28;20527;-68
2023/05/05 05:35:40;;;;;;;13.60;12.23;;;;;;;13.02;92.61;101353.34;5325692;28;20054;-68
2023/05/05 05:38:11;;;;;;;13.93;12.53;;;;;;;12.98;92.86;101357.78;5325207;28;20471;-67
2023/05/05 05:40:42;;;;;;;15.23;13.63;;;;;;;13.06;92.56;101371.63;5325270;28;20038;-67
2023/05/05 05:43:14;;;;;;;16.80;13.70;;;;;;;13.06;92.30;101369.00;5324054;28;20027;-69
2023/05/05 05:45:45;;;;;;;15.73;14.17;;;;;;;13.18;92.63;101378.41;5324890;28;20036;-68
2023/05/05 05:48:16;;;;;;;17.07;13.67;;;;;;;13.26;92.66;101391.41;5325183;28;20036;-68
2023/05/05 05:50:48;;;;;;;16.37;13.73;;;;;;;13.39;92.06;101413.06;5323810;28;20124;-66
2023/05/05 05:53:19;;;;;;;15.53;12.70;;;;;;;13.52;91.46;101416.38;5325229;28;20035;-67
2023/05/05 05:55:50;;;;;;;17.27;13.07;;;;;;;13.65;91.14;101412.69;5324678;28;20430;-69
2023/05/05 05:58:22;;;;;;;13.23;11.83;;;;;;;13.74;90.20;101419.56;5323068;28;20107;-68
2023/05/05 06:00:53;;;;;;;15.20;12.50;;;;;;;13.81;89.62;101422.06;5324714;28;20023;-67
2023/05/05 06:03:25;;;;;;;11.50;10.40;;;;;;;13.85;88.97;101428.09;5323217;28;20032;-67
2023/05/05 06:05:57;;;;;;;14.23;11.93;;;;;;;13.92;89.13;101437.59;5325031;28;20093;-67
2023/05/05 06:08:29;;;;;;;14.65;12.63;;;;;;;14.08;89.46;101438.19;5322903;28;20019;-67
2023/05/05 06:11:00;;;;;;;15.47;12.43;;;;;;;14.14;88.47;101439.88;5324672;28;20096;-68
2023/05/05 06:13:31;;;;;;;13.57;12.07;;;;;;;14.27;88.54;101443.13;5324221;28;20073;-67
2023/05/05 06:16:03;;;;;;;15.00;13.40;;;;;;;14.37;88.16;101448.16;5324984;28;20485;-67
2023/05/05 06:18:34;;;;;;;12.97;11.67;;;;;;;14.40;88.47;101444.63;5325804;28;20039;-68
2023/05/05 06:21:06;;;;;;;15.37;13.03;;;;;;;14.50;88.10;101453.19;5328179;28;20036;-67
2023/05/05 06:23:38;;;;;;;14.90;13.03;;;;;;;14.65;88.02;101450.34;5328495;28;20054;-69
2023/05/05 06:26:09;;;;;;;18.67;14.70;;;;;;;14.74;88.02;101449.28;5329047;28;20031;-69
2023/05/05 06:28:40;;;;;;;16.10;13.70;;;;;;;14.83;87.02;101456.97;5328268;28;20075;-67
2023/05/05 06:31:13;;;;;;;16.10;14.50;;;;;;;14.82;87.24;101450.00;5328705;28;20035;-67
2023/05/05 06:33:44;;;;;;;16.52;14.32;;;;;;;14.89;87.31;101441.13;5326982;28;20063;-66
2023/05/05 06:36:15;;;;;;;18.17;14.13;;;;;;;15.04;87.70;101450.44;5328749;28;20074;-68
2023/05/05 06:38:47;;;;;;;16.77;14.17;;;;;;;15.06;87.20;101450.41;5328011;28;20023;-67
2023/05/05 06:41:18;;;;;;;16.07;12.67;;;;;;;15.21;86.95;101442.19;5329001;28;20027;-68
2023/05/05 06:43:49;;;;;;;19.07;13.20;;;;;;;15.29;86.37;101442.91;5328980;28;20075;-66
2023/05/05 06:46:21;;;;;;;16.07;13.20;;;;;;;15.30;86.38;101442.00;5329162;27;20069;-67
2023/05/05 06:48:52;;;;;;;19.10;13.67;;;;;;;15.30;85.63;101439.38;5328484;28;20031;-68
2023/05/05 06:51:23;;;;;;;17.10;13.30;;;;;;;15.47;85.88;101451.25;5329180;28;20496;-68
2023/05/05 06:53:55;;;;;;;16.13;12.67;;;;;;;15.61;85.43;101451.81;5331270;28;20024;-65
2023/05/05 06:56:26;;;;;;;15.70;12.63;;;;;;;15.63;84.03;101449.13;5328782;28;20024;-68
2023/05/05 06:58:58;;;;;;;12.30;10.70;;;;;;;15.80;84.03;101454.03;5328732;28;20032;-68
2023/05/05 07:01:29;;;;;;;14.10;12.47;;;;;;;15.98;82.48;101450.97;5328537;28;20044;-67
2023/05/05 07:04:00;;;;;;;17.90;11.00;;;;;;;16.00;81.59;101454.44;5328427;28;20107;-67
2023/05/05 07:06:32;;;;;;;16.83;10.97;;;;;;;16.08;80.99;101446.31;5329256;28;20045;-67
2023/05/05 07:09:03;;;;;;;11.83;10.23;;;;;;;16.12;79.33;101455.88;5329534;28;20067;-68
2023/05/05 07:11:36;;;;;;;9.63;8.30;;;;;;;16.18;76.71;101453.09;5328280;27;20281;-68
2023/05/05 07:14:07;;;;;;;;;;;;;;;16.31;75.53;101460.66;5312311;28;20123;-66
2023/05/05 07:16:39;;;;;;;14.68;9.05;;;;;;;16.66;75.52;101461.50;5331707;28;20347;-66
2023/05/05 07:19:10;;;;;;;10.20;8.70;;;;;;;16.87;74.50;101462.69;5329741;27;20154;-67
2023/05/05 07:21:42;;;;;;;9.93;7.30;;;;;;;17.41;71.73;101462.00;5332527;27;20097;-69
2023/05/05 07:24:13;;;;;;;10.90;7.57;;;;;;;17.55;69.77;101473.88;5359013;27;20035;-66
2023/05/05 07:26:45;;;;;;;7.40;6.07;;;;;;;17.61;69.44;101465.78;5334799;28;20032;-65
2023/05/05 07:29:16;;;;;;;8.30;6.30;;;;;;;17.42;69.37;101466.38;5332521;27;20028;-67
2023/05/05 07:31:47;;;;;;;8.83;6.50;;;;;;;17.71;69.61;101469.88;5332432;28;20046;-67
2023/05/05 07:34:19;;;;;;;8.70;7.10;;;;;;;17.65;68.34;101462.16;5333461;28;20023;-68
2023/05/05 07:36:50;;;;;;;7.40;6.33;;;;;;;17.46;68.45;101456.56;5332008;28;20497;-67
2023/05/05 07:39:21;;;;;;;10.10;7.10;;;;;;;17.46;68.56;101461.84;5335024;28;20332;-67
2023/05/05 07:41:53;;;;;;;10.07;7.43;;;;;;;17.30;69.76;101458.81;5335307;27;20045;-68
2023/05/05 07:44:24;;;;;;;9.80;7.63;;;;;;;17.59;69.52;101459.69;5336943;27;20023;-66
2023/05/05 07:46:56;;;;;;;10.13;7.20;;;;;;;17.65;67.90;101449.81;5334767;28;20038;-67
2023/05/05 07:49:27;;;;;;;11.53;8.07;;;;;;;17.64;68.33;101455.13;5326485;28;20031;-67
2023/05/05 07:51:58;;;;;;;10.07;6.67;;;;;;;17.71;67.92;101454.03;5327725;28;20032;-67
2023/05/05 07:54:30;;;;;;;8.57;6.80;;;;;;;17.96;67.21;101448.00;5326709;28;20106;-66
2023/05/05 07:57:02;;;;;;;9.50;6.32;;;;;;;18.09;66.97;101449.31;5325795;27;20466;-67
2023/05/05 07:59:34;;;;;;;8.67;6.50;;;;;;;18.25;66.45;101448.78;5325143;28;20114;-67
2023/05/05 08:02:05;;;;;;;10.60;7.28;;;;;;;18.13;65.60;101444.78;5312827;27;20024;-68
2023/05/05 08:04:38;;;;;;;10.13;6.53;;;;;;;18.25;65.28;101439.09;5325837;28;20114;-68
2023/05/05 08:07:09;;;;;;;8.43;6.47;;;;;;;18.36;63.67;101452.78;5325260;28;20032;-69
2023/05/05 08:09:41;;;;;;;9.97;5.87;;;;;;;18.68;64.14;101447.28;5326318;28;20038;-69
2023/05/05 08:12:14;;;;;;;7.93;5.47;;;;;;;18.70;62.46;101445.44;5325044;28;20614;-67
2023/05/05 08:14:45;;;;;;;6.95;5.85;;;;;;;18.70;62.91;101451.56;5322865;28;20034;-67
2023/05/05 08:17:16;;;;;;;8.93;5.03;;;;;;;18.97;62.75;101458.59;5324552;28;20409;-67
2023/05/05 08:19:51;;;;;;;8.40;5.07;;;;;;;19.17;60.95;101463.13;5325229;28;20443;-67
2023/05/05 08:22:22;;;;;;;7.78;4.90;;;;;;;19.60;61.48;101456.16;5324767;28;20084;-68
2023/05/05 08:24:53;;;;;;;8.53;5.37;;;;;;;19.98;58.23;101457.28;5323925;28;20402;-67
2023/05/05 08:27:25;;;;;;;7.47;4.80;;;;;;;20.27;58.11;101452.56;5325713;28;20034;-68
2023/05/05 08:29:57;;;;;;;8.57;5.37;;;;;;;19.83;56.73;101460.56;5323931;28;20126;-67
2023/05/05 08:32:28;;;;;;;8.55;5.70;;;;;;;20.09;58.23;101453.31;5325191;27;20028;-69
2023/05/05 08:35:02;;;;;;;6.50;5.20;;;;;;;20.28;57.45;101456.06;5324810;28;20035;-67
2023/05/05 08:37:33;;;;;;;8.20;4.65;;;;;;;20.06;56.48;101464.91;5304834;28;20102;-69
2023/05/05 08:40:05;;;;;;;11.13;4.97;;;;;;;19.76;57.60;101464.38;5304799;28;20123;-68
2023/05/05 08:42:36;;;;;;;8.90;4.25;;;;;;;19.67;58.60;101462.91;5303086;28;20043;-69
2023/05/05 08:45:09;;;;;;;8.37;4.73;;;;;;;19.66;58.50;101461.22;5286360;28;20028;-67
2023/05/05 08:47:41;;;;;;;5.95;3.97;;;;;;;19.61;57.78;101466.69;5304314;28;20077;-68
2023/05/05 08:50:15;;;;;;;8.10;4.32;;;;;;;19.62;58.56;101464.91;5304233;28;20440;-67
2023/05/05 08:52:52;;;;;;;9.10;4.38;;;;;;;19.71;57.94;101472.47;5304087;28;20043;-67
2023/05/05 08:55:26;;;;;;;8.93;4.70;;;;;;;19.55;58.69;101464.28;5304273;28;20024;-66
2023/05/05 08:58:01;;;;;;;11.40;4.43;;;;;;;19.67;59.01;101463.81;5304036;28;20415;-68
2023/05/05 09:00:33;;;;;;;8.40;3.97;;;;;;;19.86;58.30;101455.13;5303411;28;20134;-67
2023/05/05 09:03:06;;;;;;;7.88;4.18;;;;;;;20.09;57.08;101459.47;5303966;28;20114;-67
2023/05/05 09:05:37;;;;;;;6.32;4.18;;;;;;;19.99;57.31;101451.06;5302857;28;20398;-68
2023/05/05 09:08:12;;;;;;;7.63;3.95;;;;;;;19.59;57.49;101455.28;5303889;28;20085;-68
2023/05/05 09:10:44;;;;;;;8.25;4.25;;;;;;;19.94;57.56;101450.38;5314800;28;20407;-67
2023/05/05 09:13:15;;;;;;;10.77;3.85;;;;;;;19.91;56.93;101453.16;5326690;27;20109;-68
2023/05/05 09:15:47;;;;;;;7.00;4.30;;;;;;;19.65;57.65;101470.06;5328849;27;20035;-67
2023/05/05 09:18:18;;;;;;;6.03;3.83;;;;;;;20.12;57.24;101461.97;5322699;28;20057;-67
2023/05/05 09:20:50;;;;;;;8.30;3.93;;;;;;;20.27;56.04;101465.78;5324643;28;20412;-67
2023/05/05 09:23:21;;;;;;;6.43;4.17;;;;;;;20.20;56.28;101469.59;5323600;28;20490;-68
2023/05/05 09:26:04;;;;;;;7.47;3.50;;;;;;;20.23;56.64;101464.19;5306442;28;20100;-68
2023/05/05 09:28:36;;;;;;;7.80;3.90;;;;;;;20.04;56.30;101470.28;5322804;28;20034;-67
2023/05/05 09:31:12;;;;;;;7.15;2.97;;;;;;;19.60;54.80;101472.88;5296957;28;20028;-70
2023/05/05 09:33:45;;;;;;;5.72;3.42;;;;;;;19.62;56.78;101473.69;5303178;28;20032;-68
2023/05/05 09:36:16;;;;;;;12.98;4.68;;;;;;;19.59;58.08;101481.72;5309856;28;20447;-68
2023/05/05 09:39:06;;;;;;;12.43;4.80;;;;;;;19.54;58.39;101469.63;5324148;28;20088;-67
2023/05/05 09:41:39;;;;;;;8.93;4.38;;;;;;;19.55;59.07;101480.16;5324291;28;20019;-69
2023/05/05 09:44:14;;;;;;;14.88;4.30;;;;;;;19.53;58.48;101465.25;5323058;28;20054;-68
2023/05/05 09:46:50;;;;;;;10.57;4.88;;;;;;;19.36;58.63;101476.50;5324219;28;20114;-68
2023/05/05 09:49:24;;;;;;;8.93;5.25;;;;;;;19.16;59.01;101467.56;5323442;28;20046;-68
2023/05/05 09:51:56;;;;;;;7.60;4.60;;;;;;;18.96;60.75;101476.22;5322784;28;20028;-68
2023/05/05 09:54:28;;;;;;;6.72;4.35;;;;;;;18.98;60.71;101471.72;5326561;28;20088;-68
2023/05/05 09:57:00;;;;;;;;;;;;;;;19.35;59.67;101466.84;5329377;28;20031;-67
2023/05/05 09:59:31;;;;;;;10.73;5.43;;;;;;;19.27;59.71;101468.00;5324836;27;20300;-68
2023/05/05 10:02:12;;;;;;;7.47;3.50;;;;;;;19.33;59.41;101463.41;5328422;28;20058;-68
2023/05/05 10:04:44;;;;;;;5.88;3.53;;;;;;;19.24;58.88;101467.25;5326994;28;20384;-67
2023/05/05 10:07:23;;;;;;;6.07;3.97;;;;;;;19.08;59.76;101470.47;5327407;28;20057;-68
2023/05/05 10:09:55;;;;;;;6.22;3.85;;;;;;;18.92;59.19;101469.34;5327673;28;20123;-68
2023/05/05 10:12:28;;;;;;;8.93;3.53;;;;;;;18.87;59.84;101464.22;5327853;28;20111;-68
2023/05/05 10:15:01;;;;;;;6.75;3.72;;;;;;;18.50;60.62;101459.34;5326604;28;20027;-68
2023/05/05 10:17:44;;;;;;;5.90;3.35;;;;;;;18.38;61.26;101464.13;5328142;28;20028;-68
2023/05/05 10:20:17;;;;;;;7.43;3.40;;;;;;;18.29;60.88;101468.88;5326526;28;20040;-67
2023/05/05 10:22:54;;;;;;;8.32;2.55;;;;;;;18.15;62.41;101466.72;5327095;28;20047;-66
2023/05/05 10:25:34;;;;;;;8.48;4.20;;;;;;;17.97;66.70;101465.56;5326851;28;20061;-67
2023/05/05 10:28:08;;;;;;;8.65;4.70;;;;;;;17.72;71.12;101471.56;5326168;28;20038;-68
2023/05/05 10:30:43;;;;;;;11.45;5.35;;;;;;;17.83;71.57;101465.97;5327334;28;20026;-68
2023/05/05 10:33:17;;;;;;;7.60;5.00;;;;;;;17.77;71.83;101469.66;5325916;27;20028;-68
2023/05/05 10:35:52;;;;;;;8.55;4.57;;;;;;;17.71;74.25;101471.63;5313407;27;20028;-67
2023/05/05 10:38:25;;;;;;;9.25;4.85;;;;;;;17.48;75.31;101476.72;5310630;28;20051;-68
2023/05/05 10:41:00;;;;;;;7.72;5.00;;;;;;;17.37;75.92;101489.38;5325450;28;20043;-68
2023/05/05 10:43:32;;;;;;;9.40;6.32;;;;;;;17.10;78.94;101483.13;5328053;28;20475;-67
2023/05/05 10:46:04;;;;;;;9.38;6.82;;;;;;;16.87;84.19;101487.28;5327876;28;20207;-67
2023/05/05 10:48:39;;;;;;;11.57;7.35;;;;;;;16.50;88.18;101490.88;5324977;28;20484;-67
2023/05/05 10:51:21;;;;;;;10.50;7.35;;;;;;;16.49;90.64;101488.28;5327783;28;20356;-68
2023/05/05 10:54:01;;;;;;;11.35;7.75;;;;;;;16.29;89.76;101492.25;5327612;28;20074;-66
2023/05/05 10:56:34;;;;;;;12.50;6.78;;;;;;;16.14;91.30;101485.63;5327194;28;20035;-66
2023/05/05 10:59:38;;;;;;;11.10;6.85;;;;;;;16.09;91.69;101479.63;5327873;28;20062;-66
2023/05/05 11:02:24;;;;;;;11.07;7.65;;;;;;;15.93;95.37;101492.28;5323962;28;20036;-67
2023/05/05 11:05:09;;;;;;;12.18;7.80;;;;;;;15.31;98.81;101498.00;5327000;28;20477;-67
2023/05/05 11:07:42;;;;;;;12.52;8.32;;;;;;;15.12;100.00;101506.28;5328070;28;20092;-68
2023/05/05 11:10:14;;;;;;;11.88;7.95;;;;;;;15.08;100.00;101512.47;5327873;28;20397;-67
2023/05/05 11:12:58;;;;;;;11.68;8.02;;;;;;;14.83;100.00;101504.22;5326666;28;20364;-66
2023/05/05 11:15:30;;;;;;;15.52;8.18;;;;;;;14.84;100.00;101503.31;5326767;28;20031;-66
2023/05/05 11:18:02;;;;;;;11.50;7.47;;;;;;;15.08;100.00;101514.25;5326548;28;20028;-66
2023/05/05 11:20:38;;;;;;;12.85;8.93;;;;;;;15.16;100.00;101512.31;5326171;28;20050;-66
2023/05/05 11:23:09;;;;;;;13.52;9.02;;;;;;;15.21;100.00;101502.59;5327160;28;20056;-67
2023/05/05 11:25:44;;;;;;;10.73;8.63;;;;;;;15.44;100.00;101502.13;5327516;28;20034;-67
2023/05/05 11:28:22;;;;;;;12.05;9.18;;;;;;;15.31;100.00;101506.78;5327705;28;20024;-66
2023/05/05 11:30:56;;;;;;;10.05;7.65;;;;;;;15.25;100.00;101506.03;5327298;28;20027;-66
2023/05/05 11:33:36;;;;;;;11.00;7.03;;;;;;;15.30;100.00;101499.78;5327589;28;20088;-67
2023/05/05 11:36:11;;;;;;;10.45;7.70;;;;;;;15.28;100.00;101500.72;5327213;28;20069;-68
2023/05/05 11:39:00;;;;;;;9.30;7.63;;;;;;;15.37;100.00;101510.16;5327481;28;20036;-67
2023/05/05 11:41:31;;;;;;;8.95;5.63;;;;;;;15.30;100.00;101507.66;5327094;28;20100;-66
2023/05/05 11:44:11;;;;;;;6.27;3.63;;;;;;;15.21;100.00;101507.84;5327298;28;20431;-67
2023/05/05 11:46:51;;;;;;;6.53;3.22;;;;;;;15.40;100.00;101504.84;5327261;28;20463;-68